sensor_id;sensor_type;location;lat;lon;timestamp;pressure;altitude;pressure_sealevel;temperature;humidity
55675;BME280;41562;44.330;23.802;2023-05-22T00:01:56;100137.13;;;17.36;94.20
55675;BME280;41562;44.330;23.802;2023-05-22T00:04:24;100135.84;;;17.24;93.55
55675;BME280;41562;44.330;23.802;2023-05-22T00:06:51;100122.81;;;17.26;95.07
55675;BME280;41562;44.330;23.802;2023-05-22T00:09:18;100129.03;;;17.18;94.14
55675;BME280;41562;44.330;23.802;2023-05-22T00:11:46;100130.13;;;17.17;94.52
55675;BME280;41562;44.330;23.802;2023-05-22T00:14:14;100116.13;;;17.15;94.51
55675;BME280;41562;44.330;23.802;2023-05-22T00:16:41;100122.03;;;17.17;95.35
55675;BME280;41562;44.330;23.802;2023-05-22T00:19:10;100123.44;;;17.23;94.95
55675;BME280;41562;44.330;23.802;2023-05-22T00:21:38;100117.25;;;17.23;95.29
55675;BME280;41562;44.330;23.802;2023-05-22T00:24:06;100112.47;;;17.20;95.61
55675;BME280;41562;44.330;23.802;2023-05-22T00:26:33;100110.25;;;17.13;95.62
55675;BME280;41562;44.330;23.802;2023-05-22T00:29:01;100110.56;;;17.03;95.59
55675;BME280;41562;44.330;23.802;2023-05-22T00:31:28;100116.13;;;17.15;95.67
55675;BME280;41562;44.330;23.802;2023-05-22T00:33:57;100111.03;;;17.05;96.14
55675;BME280;41562;44.330;23.802;2023-05-22T00:36:25;100111.84;;;17.06;96.24
55675;BME280;41562;44.330;23.802;2023-05-22T00:38:52;100117.88;;;17.11;96.84
55675;BME280;41562;44.330;23.802;2023-05-22T00:41:20;100113.25;;;17.03;96.17
55675;BME280;41562;44.330;23.802;2023-05-22T00:43:48;100106.59;;;17.01;95.87
55675;BME280;41562;44.330;23.802;2023-05-22T00:46:15;100110.38;;;16.91;95.75
55675;BME280;41562;44.330;23.802;2023-05-22T00:48:43;100112.63;;;17.06;96.59
55675;BME280;41562;44.330;23.802;2023-05-22T00:51:10;100111.38;;;17.12;97.65
55675;BME280;41562;44.330;23.802;2023-05-22T00:53:39;100114.22;;;17.42;96.82
55675;BME280;41562;44.330;23.802;2023-05-22T00:56:06;100126.00;;;17.63;95.40
55675;BME280;41562;44.330;23.802;2023-05-22T00:58:33;100131.09;;;17.39;97.13
55675;BME280;41562;44.330;23.802;2023-05-22T01:01:01;100129.81;;;17.27;96.83
55675;BME280;41562;44.330;23.802;2023-05-22T01:03:28;100129.97;;;17.22;98.01
55675;BME280;41562;44.330;23.802;2023-05-22T01:05:56;100130.44;;;17.16;97.81
55675;BME280;41562;44.330;23.802;2023-05-22T01:08:24;100138.88;;;17.06;99.38
55675;BME280;41562;44.330;23.802;2023-05-22T01:10:57;100133.75;;;17.04;99.33
55675;BME280;41562;44.330;23.802;2023-05-22T01:16:04;100143.16;;;17.07;99.62
55675;BME280;41562;44.330;23.802;2023-05-22T01:18:44;100135.22;;;17.36;96.24
55675;BME280;41562;44.330;23.802;2023-05-22T01:21:21;100137.91;;;17.10;95.13
55675;BME280;41562;44.330;23.802;2023-05-22T01:27:13;100140.78;;;17.31;95.47
55675;BME280;41562;44.330;23.802;2023-05-22T01:32:31;100131.06;;;17.21;97.24
55675;BME280;41562;44.330;23.802;2023-05-22T01:35:04;100127.09;;;17.10;97.11
55675;BME280;41562;44.330;23.802;2023-05-22T01:37:33;100136.47;;;17.04;97.19
55675;BME280;41562;44.330;23.802;2023-05-22T01:40:02;100119.94;;;17.06;97.38
55675;BME280;41562;44.330;23.802;2023-05-22T01:42:30;100120.13;;;17.01;97.84
55675;BME280;41562;44.330;23.802;2023-05-22T01:44:57;100125.97;;;16.94;98.60
55675;BME280;41562;44.330;23.802;2023-05-22T01:47:24;100122.63;;;16.97;99.09
55675;BME280;41562;44.330;23.802;2023-05-22T01:49:52;100124.72;;;17.00;99.30
55675;BME280;41562;44.330;23.802;2023-05-22T01:52:29;100119.63;;;17.07;98.57
55675;BME280;41562;44.330;23.802;2023-05-22T01:55:09;100120.13;;;17.01;100.00
55675;BME280;41562;44.330;23.802;2023-05-22T01:57:58;100132.34;;;16.98;100.00
55675;BME280;41562;44.330;23.802;2023-05-22T02:00:26;100126.44;;;16.87;100.00
55675;BME280;41562;44.330;23.802;2023-05-22T02:02:57;100125.47;;;16.75;100.00
55675;BME280;41562;44.330;23.802;2023-05-22T02:05:28;100131.13;;;16.65;100.00
55675;BME280;41562;44.330;23.802;2023-05-22T02:07:57;100131.81;;;16.79;100.00
55675;BME280;41562;44.330;23.802;2023-05-22T02:10:28;100131.00;;;16.70;100.00
55675;BME280;41562;44.330;23.802;2023-05-22T02:12:56;100136.09;;;16.63;100.00
55675;BME280;41562;44.330;23.802;2023-05-22T02:15:23;100140.03;;;16.65;100.00
55675;BME280;41562;44.330;23.802;2023-05-22T02:17:51;100141.78;;;16.70;100.00
55675;BME280;41562;44.330;23.802;2023-05-22T02:20:19;100136.50;;;16.56;100.00
55675;BME280;41562;44.330;23.802;2023-05-22T02:22:46;100136.22;;;16.66;100.00
55675;BME280;41562;44.330;23.802;2023-05-22T02:25:15;100135.44;;;16.66;100.00
55675;BME280;41562;44.330;23.802;2023-05-22T02:27:43;100138.66;;;16.45;100.00
55675;BME280;41562;44.330;23.802;2023-05-22T02:30:12;100137.41;;;16.52;100.00
55675;BME280;41562;44.330;23.802;2023-05-22T02:32:40;100149.16;;;16.47;100.00
55675;BME280;41562;44.330;23.802;2023-05-22T02:35:08;100153.09;;;16.41;100.00
55675;BME280;41562;44.330;23.802;2023-05-22T02:37:36;100150.06;;;16.34;100.00
55675;BME280;41562;44.330;23.802;2023-05-22T02:40:04;100144.22;;;16.40;100.00
55675;BME280;41562;44.330;23.802;2023-05-22T02:42:31;100137.38;;;16.34;100.00
55675;BME280;41562;44.330;23.802;2023-05-22T02:44:59;100143.59;;;16.43;100.00
55675;BME280;41562;44.330;23.802;2023-05-22T02:47:26;100147.06;;;16.35;100.00
55675;BME280;41562;44.330;23.802;2023-05-22T02:49:53;100147.75;;;16.19;100.00
55675;BME280;41562;44.330;23.802;2023-05-22T02:52:21;100136.84;;;16.24;100.00
55675;BME280;41562;44.330;23.802;2023-05-22T02:54:48;100138.81;;;16.40;100.00
55675;BME280;41562;44.330;23.802;2023-05-22T02:57:15;100132.72;;;16.26;100.00
55675;BME280;41562;44.330;23.802;2023-05-22T02:59:43;100133.25;;;16.06;100.00
55675;BME280;41562;44.330;23.802;2023-05-22T03:02:10;100137.97;;;16.00;100.00
55675;BME280;41562;44.330;23.802;2023-05-22T03:04:37;100132.72;;;15.95;100.00
55675;BME280;41562;44.330;23.802;2023-05-22T03:07:04;100128.56;;;16.20;100.00
55675;BME280;41562;44.330;23.802;2023-05-22T03:09:32;100134.66;;;16.34;100.00
55675;BME280;41562;44.330;23.802;2023-05-22T03:11:59;100135.06;;;16.19;100.00
55675;BME280;41562;44.330;23.802;2023-05-22T03:14:26;100131.53;;;16.10;100.00
55675;BME280;41562;44.330;23.802;2023-05-22T03:16:54;100134.25;;;16.10;100.00
55675;BME280;41562;44.330;23.802;2023-05-22T03:19:21;100126.28;;;16.05;100.00
55675;BME280;41562;44.330;23.802;2023-05-22T03:21:48;100135.03;;;16.11;100.00
55675;BME280;41562;44.330;23.802;2023-05-22T03:24:16;100130.69;;;16.01;100.00
55675;BME280;41562;44.330;23.802;2023-05-22T03:26:43;100132.78;;;16.04;100.00
55675;BME280;41562;44.330;23.802;2023-05-22T03:29:11;100126.28;;;16.05;100.00
55675;BME280;41562;44.330;23.802;2023-05-22T03:31:38;100124.81;;;15.99;100.00
55675;BME280;41562;44.330;23.802;2023-05-22T03:34:05;100119.00;;;16.05;100.00
55675;BME280;41562;44.330;23.802;2023-05-22T03:36:34;100119.31;;;16.13;100.00
55675;BME280;41562;44.330;23.802;2023-05-22T03:39:03;100121.25;;;16.12;100.00
55675;BME280;41562;44.330;23.802;2023-05-22T03:41:30;100130.47;;;16.20;100.00
55675;BME280;41562;44.330;23.802;2023-05-22T03:43:58;100126.81;;;16.16;100.00
55675;BME280;41562;44.330;23.802;2023-05-22T03:46:25;100128.50;;;16.03;100.00
55675;BME280;41562;44.330;23.802;2023-05-22T03:48:54;100133.59;;;17.78;100.00
55675;BME280;41562;44.330;23.802;2023-05-22T03:51:21;100140.41;;;18.01;100.00
55675;BME280;41562;44.330;23.802;2023-05-22T03:53:49;100126.53;;;18.12;99.46
55675;BME280;41562;44.330;23.802;2023-05-22T03:56:17;100144.41;;;18.42;97.29
55675;BME280;41562;44.330;23.802;2023-05-22T03:58:45;100137.72;;;17.93;100.00
55675;BME280;41562;44.330;23.802;2023-05-22T04:01:13;100144.94;;;18.27;100.00
55675;BME280;41562;44.330;23.802;2023-05-22T04:03:40;100146.25;;;18.21;98.38
55675;BME280;41562;44.330;23.802;2023-05-22T04:06:09;100149.09;;;18.71;100.00
55675;BME280;41562;44.330;23.802;2023-05-22T04:08:36;100152.34;;;18.47;98.18
55675;BME280;41562;44.330;23.802;2023-05-22T04:11:07;100159.94;;;18.16;100.00
55675;BME280;41562;44.330;23.802;2023-05-22T04:13:34;100149.03;;;17.95;99.02
55675;BME280;41562;44.330;23.802;2023-05-22T04:16:03;100142.06;;;17.42;100.00
55675;BME280;41562;44.330;23.802;2023-05-22T04:18:30;100149.53;;;17.71;100.00
55675;BME280;41562;44.330;23.802;2023-05-22T04:20:57;100142.19;;;17.80;100.00
55675;BME280;41562;44.330;23.802;2023-05-22T04:23:27;100148.03;;;18.08;99.31
55675;BME280;41562;44.330;23.802;2023-05-22T04:25:55;100146.41;;;18.16;98.74
55675;BME280;41562;44.330;23.802;2023-05-22T04:28:22;100154.53;;;18.16;97.91
55675;BME280;41562;44.330;23.802;2023-05-22T04:30:49;100151.28;;;18.31;96.85
55675;BME280;41562;44.330;23.802;2023-05-22T04:33:17;100153.41;;;18.17;97.08
55675;BME280;41562;44.330;23.802;2023-05-22T04:35:44;100152.56;;;17.70;98.61
55675;BME280;41562;44.330;23.802;2023-05-22T04:38:12;100148.69;;;17.02;100.00
55675;BME280;41562;44.330;23.802;2023-05-22T04:40:39;100151.78;;;16.69;100.00
55675;BME280;41562;44.330;23.802;2023-05-22T04:43:06;100156.47;;;16.46;100.00
55675;BME280;41562;44.330;23.802;2023-05-22T04:45:34;100150.56;;;16.44;100.00
55675;BME280;41562;44.330;23.802;2023-05-22T04:48:01;100154.31;;;16.26;100.00
55675;BME280;41562;44.330;23.802;2023-05-22T04:50:30;100154.94;;;16.23;100.00
55675;BME280;41562;44.330;23.802;2023-05-22T04:53:00;100156.78;;;16.14;100.00
55675;BME280;41562;44.330;23.802;2023-05-22T04:55:27;100160.13;;;16.20;100.00
55675;BME280;41562;44.330;23.802;2023-05-22T04:57:54;100159.19;;;16.16;100.00
55675;BME280;41562;44.330;23.802;2023-05-22T05:00:22;100160.94;;;16.20;100.00
55675;BME280;41562;44.330;23.802;2023-05-22T05:02:49;100168.22;;;16.11;100.00
55675;BME280;41562;44.330;23.802;2023-05-22T05:05:17;100168.69;;;16.13;100.00
55675;BME280;41562;44.330;23.802;2023-05-22T05:07:46;100172.16;;;16.05;100.00
55675;BME280;41562;44.330;23.802;2023-05-22T05:10:19;100172.97;;;16.14;100.00
55675;BME280;41562;44.330;23.802;2023-05-22T05:12:47;100174.84;;;16.05;100.00
55675;BME280;41562;44.330;23.802;2023-05-22T05:15:14;100175.81;;;16.09;100.00
55675;BME280;41562;44.330;23.802;2023-05-22T05:17:42;100166.97;;;16.17;100.00
55675;BME280;41562;44.330;23.802;2023-05-22T05:20:09;100172.72;;;16.24;100.00
55675;BME280;41562;44.330;23.802;2023-05-22T05:22:37;100165.91;;;16.27;100.00
55675;BME280;41562;44.330;23.802;2023-05-22T05:25:06;100169.88;;;16.29;100.00
55675;BME280;41562;44.330;23.802;2023-05-22T05:27:36;100172.31;;;16.39;100.00
55675;BME280;41562;44.330;23.802;2023-05-22T05:30:04;100174.28;;;16.25;100.00
55675;BME280;41562;44.330;23.802;2023-05-22T05:32:32;100170.69;;;16.30;100.00
55675;BME280;41562;44.330;23.802;2023-05-22T05:34:59;100172.44;;;16.34;100.00
55675;BME280;41562;44.330;23.802;2023-05-22T05:37:26;100179.78;;;16.42;100.00
55675;BME280;41562;44.330;23.802;2023-05-22T05:39:54;100178.53;;;16.48;100.00
55675;BME280;41562;44.330;23.802;2023-05-22T05:42:21;100183.81;;;16.54;100.00
55675;BME280;41562;44.330;23.802;2023-05-22T05:44:48;100181.25;;;16.57;100.00
55675;BME280;41562;44.330;23.802;2023-05-22T05:47:16;100182.06;;;16.58;100.00
55675;BME280;41562;44.330;23.802;2023-05-22T05:49:43;100187.38;;;16.71;100.00
55675;BME280;41562;44.330;23.802;2023-05-22T05:52:10;100185.47;;;16.72;100.00
55675;BME280;41562;44.330;23.802;2023-05-22T05:54:37;100188.19;;;16.72;100.00
55675;BME280;41562;44.330;23.802;2023-05-22T05:57:05;100199.34;;;16.79;100.00
55675;BME280;41562;44.330;23.802;2023-05-22T05:59:32;100190.13;;;16.80;100.00
55675;BME280;41562;44.330;23.802;2023-05-22T06:02:00;100189.66;;;16.95;100.00
55675;BME280;41562;44.330;23.802;2023-05-22T06:04:27;100198.41;;;16.92;100.00
55675;BME280;41562;44.330;23.802;2023-05-22T06:06:54;100200.66;;;16.99;100.00
55675;BME280;41562;44.330;23.802;2023-05-22T06:09:21;100199.56;;;17.08;100.00
55675;BME280;41562;44.330;23.802;2023-05-22T06:11:52;100200.34;;;17.09;100.00
55675;BME280;41562;44.330;23.802;2023-05-22T06:14:19;100195.13;;;17.12;100.00
55675;BME280;41562;44.330;23.802;2023-05-22T06:16:47;100194.34;;;17.20;100.00
55675;BME280;41562;44.330;23.802;2023-05-22T06:19:17;100201.03;;;17.32;100.00
55675;BME280;41562;44.330;23.802;2023-05-22T06:21:48;100202.16;;;17.39;100.00
55675;BME280;41562;44.330;23.802;2023-05-22T06:24:18;100200.56;;;17.55;100.00
55675;BME280;41562;44.330;23.802;2023-05-22T06:26:45;100208.72;;;17.64;100.00
55675;BME280;41562;44.330;23.802;2023-05-22T06:29:12;100199.97;;;17.76;100.00
55675;BME280;41562;44.330;23.802;2023-05-22T06:31:39;100207.75;;;17.86;100.00
55675;BME280;41562;44.330;23.802;2023-05-22T06:34:07;100205.81;;;18.03;100.00
55675;BME280;41562;44.330;23.802;2023-05-22T06:36:35;100207.22;;;18.09;100.00
55675;BME280;41562;44.330;23.802;2023-05-22T06:39:02;100206.44;;;18.18;100.00
55675;BME280;41562;44.330;23.802;2023-05-22T06:41:29;100213.56;;;18.22;100.00
55675;BME280;41562;44.330;23.802;2023-05-22T06:43:56;100209.56;;;18.37;100.00
55675;BME280;41562;44.330;23.802;2023-05-22T06:46:24;100209.88;;;18.44;100.00
55675;BME280;41562;44.330;23.802;2023-05-22T06:48:52;100208.41;;;18.55;99.06
55675;BME280;41562;44.330;23.802;2023-05-22T06:51:20;100213.81;;;18.64;98.56
55675;BME280;41562;44.330;23.802;2023-05-22T06:53:47;100213.06;;;18.46;96.77
55675;BME280;41562;44.330;23.802;2023-05-22T06:56:14;100212.09;;;18.42;97.08
55675;BME280;41562;44.330;23.802;2023-05-22T06:58:42;100206.72;;;18.33;97.64
55675;BME280;41562;44.330;23.802;2023-05-22T07:01:13;100214.19;;;18.36;98.24
55675;BME280;41562;44.330;23.802;2023-05-22T07:03:40;100212.44;;;18.32;98.25
55675;BME280;41562;44.330;23.802;2023-05-22T07:06:07;100204.78;;;18.34;97.63
55675;BME280;41562;44.330;23.802;2023-05-22T07:08:35;100215.59;;;18.34;97.95
55675;BME280;41562;44.330;23.802;2023-05-22T07:11:03;100207.63;;;18.46;96.47
55675;BME280;41562;44.330;23.802;2023-05-22T07:13:30;100206.03;;;18.45;94.73
55675;BME280;41562;44.330;23.802;2023-05-22T07:15:58;100208.88;;;18.48;96.76
55675;BME280;41562;44.330;23.802;2023-05-22T07:18:25;100200.28;;;18.55;98.69
55675;BME280;41562;44.330;23.802;2023-05-22T07:20:54;100194.50;;;18.65;99.13
55675;BME280;41562;44.330;23.802;2023-05-22T07:23:21;100199.78;;;18.62;97.35
55675;BME280;41562;44.330;23.802;2023-05-22T07:25:51;100197.56;;;18.64;98.51
55675;BME280;41562;44.330;23.802;2023-05-22T07:28:19;100201.19;;;18.68;98.41
55675;BME280;41562;44.330;23.802;2023-05-22T07:30:48;100201.69;;;18.61;96.97
55675;BME280;41562;44.330;23.802;2023-05-22T07:33:16;100204.41;;;18.53;97.01
55675;BME280;41562;44.330;23.802;2023-05-22T07:35:43;100194.94;;;18.76;96.63
55675;BME280;41562;44.330;23.802;2023-05-22T07:38:11;100197.44;;;18.90;95.70
55675;BME280;41562;44.330;23.802;2023-05-22T07:40:38;100197.13;;;19.12;95.14
55675;BME280;41562;44.330;23.802;2023-05-22T07:43:07;100203.84;;;19.06;93.89
55675;BME280;41562;44.330;23.802;2023-05-22T07:45:34;100205.44;;;19.07;93.82
55675;BME280;41562;44.330;23.802;2023-05-22T07:48:02;100205.44;;;19.07;91.11
55675;BME280;41562;44.330;23.802;2023-05-22T07:50:30;100206.84;;;19.13;92.58
55675;BME280;41562;44.330;23.802;2023-05-22T07:52:57;100195.94;;;19.42;92.52
55675;BME280;41562;44.330;23.802;2023-05-22T07:55:28;100204.81;;;19.60;89.56
55675;BME280;41562;44.330;23.802;2023-05-22T07:57:56;100202.41;;;20.24;85.54
55675;BME280;41562;44.330;23.802;2023-05-22T08:00:23;100208.03;;;20.52;85.06
55675;BME280;41562;44.330;23.802;2023-05-22T08:02:51;100192.75;;;20.96;86.36
55675;BME280;41562;44.330;23.802;2023-05-22T08:05:19;100205.91;;;21.18;84.65
55675;BME280;41562;44.330;23.802;2023-05-22T08:07:46;100201.41;;;20.74;84.72
55675;BME280;41562;44.330;23.802;2023-05-22T08:10:15;100203.19;;;20.70;85.67
55675;BME280;41562;44.330;23.802;2023-05-22T08:12:43;100200.09;;;20.35;84.31
55675;BME280;41562;44.330;23.802;2023-05-22T08:15:11;100209.47;;;20.37;84.94
55675;BME280;41562;44.330;23.802;2023-05-22T08:17:41;100209.25;;;20.42;79.51
55675;BME280;41562;44.330;23.802;2023-05-22T08:20:09;100204.66;;;20.92;82.41
55675;BME280;41562;44.330;23.802;2023-05-22T08:22:38;100203.84;;;21.27;83.15
55675;BME280;41562;44.330;23.802;2023-05-22T08:25:06;100195.09;;;21.46;83.53
55675;BME280;41562;44.330;23.802;2023-05-22T08:27:33;100199.28;;;21.44;80.58
55675;BME280;41562;44.330;23.802;2023-05-22T08:30:01;100189.81;;;21.65;81.10
55675;BME280;41562;44.330;23.802;2023-05-22T08:32:28;100186.88;;;21.58;78.37
55675;BME280;41562;44.330;23.802;2023-05-22T08:34:57;100195.09;;;21.46;82.06
55675;BME280;41562;44.330;23.802;2023-05-22T08:37:25;100198.19;;;21.20;79.53
55675;BME280;41562;44.330;23.802;2023-05-22T08:39:52;100192.69;;;21.45;79.40
55675;BME280;41562;44.330;23.802;2023-05-22T08:42:20;100192.34;;;21.86;79.98
55675;BME280;41562;44.330;23.802;2023-05-22T08:44:47;100196.97;;;21.98;79.78
55675;BME280;41562;44.330;23.802;2023-05-22T08:47:16;100199.19;;;22.39;77.33
55675;BME280;41562;44.330;23.802;2023-05-22T08:49:46;100188.75;;;22.41;77.12
55675;BME280;41562;44.330;23.802;2023-05-22T08:52:29;100197.50;;;22.03;74.63
55675;BME280;41562;44.330;23.802;2023-05-22T08:55:01;100193.91;;;22.15;74.62
55675;BME280;41562;44.330;23.802;2023-05-22T08:57:31;100186.25;;;22.21;77.21
55675;BME280;41562;44.330;23.802;2023-05-22T08:59:58;100200.00;;;22.56;72.56
55675;BME280;41562;44.330;23.802;2023-05-22T09:02:26;100194.97;;;22.58;75.28
55675;BME280;41562;44.330;23.802;2023-05-22T09:04:54;100187.88;;;22.37;76.01
55675;BME280;41562;44.330;23.802;2023-05-22T09:07:21;100190.13;;;22.51;77.03
55675;BME280;41562;44.330;23.802;2023-05-22T09:09:49;100188.59;;;22.50;76.96
55675;BME280;41562;44.330;23.802;2023-05-22T09:12:16;100187.78;;;22.50;76.45
55675;BME280;41562;44.330;23.802;2023-05-22T09:14:46;100184.00;;;22.54;75.35
55675;BME280;41562;44.330;23.802;2023-05-22T09:17:14;100187.81;;;22.81;74.38
55675;BME280;41562;44.330;23.802;2023-05-22T09:19:43;100184.16;;;22.93;74.11
55675;BME280;41562;44.330;23.802;2023-05-22T09:22:11;100183.94;;;22.82;74.83
55675;BME280;41562;44.330;23.802;2023-05-22T09:24:40;100184.34;;;22.68;71.40
55675;BME280;41562;44.330;23.802;2023-05-22T09:27:10;100172.84;;;22.75;72.99
55675;BME280;41562;44.330;23.802;2023-05-22T09:29:51;100171.50;;;22.84;76.64
55675;BME280;41562;44.330;23.802;2023-05-22T09:32:19;100174.41;;;22.60;73.39
55675;BME280;41562;44.330;23.802;2023-05-22T09:34:46;100173.44;;;22.68;73.48
55675;BME280;41562;44.330;23.802;2023-05-22T09:37:16;100173.19;;;22.73;75.63
55675;BME280;41562;44.330;23.802;2023-05-22T09:39:45;100172.06;;;22.74;76.02
55675;BME280;41562;44.330;23.802;2023-05-22T09:42:14;100171.66;;;23.07;74.70
55675;BME280;41562;44.330;23.802;2023-05-22T09:44:47;100169.59;;;23.39;74.19
55675;BME280;41562;44.330;23.802;2023-05-22T09:47:15;100154.69;;;23.52;72.57
55675;BME280;41562;44.330;23.802;2023-05-22T09:49:43;100160.41;;;23.67;72.94
55675;BME280;41562;44.330;23.802;2023-05-22T09:52:11;100168.63;;;23.47;70.46
55675;BME280;41562;44.330;23.802;2023-05-22T09:54:45;100156.38;;;23.41;70.54
55675;BME280;41562;44.330;23.802;2023-05-22T09:57:16;100155.03;;;23.32;71.52
55675;BME280;41562;44.330;23.802;2023-05-22T09:59:49;100148.66;;;22.73;74.40
55675;BME280;41562;44.330;23.802;2023-05-22T10:02:17;100153.75;;;22.59;77.82
55675;BME280;41562;44.330;23.802;2023-05-22T10:04:47;100141.19;;;22.55;74.04
55675;BME280;41562;44.330;23.802;2023-05-22T10:07:21;100147.06;;;22.72;77.07
55675;BME280;41562;44.330;23.802;2023-05-22T10:10:03;100150.88;;;23.03;75.49
55675;BME280;41562;44.330;23.802;2023-05-22T10:12:32;100135.91;;;23.32;75.90
55675;BME280;41562;44.330;23.802;2023-05-22T10:15:04;100137.38;;;23.64;73.88
55675;BME280;41562;44.330;23.802;2023-05-22T10:17:33;100133.63;;;23.72;72.39
55675;BME280;41562;44.330;23.802;2023-05-22T10:20:02;100132.56;;;23.57;72.54
55675;BME280;41562;44.330;23.802;2023-05-22T10:22:31;100135.16;;;23.15;69.89
55675;BME280;41562;44.330;23.802;2023-05-22T10:25:00;100138.38;;;23.02;68.25
55675;BME280;41562;44.330;23.802;2023-05-22T10:27:28;100137.13;;;23.34;71.11
55675;BME280;41562;44.330;23.802;2023-05-22T10:30:23;100132.84;;;23.52;70.32
55675;BME280;41562;44.330;23.802;2023-05-22T10:35:57;100126.00;;;23.43;70.67
55675;BME280;41562;44.330;23.802;2023-05-22T10:41:11;100118.97;;;23.42;71.39
55675;BME280;41562;44.330;23.802;2023-05-22T10:43:40;100120.47;;;23.20;72.78
55675;BME280;41562;44.330;23.802;2023-05-22T10:46:08;100114.38;;;23.07;71.82
55675;BME280;41562;44.330;23.802;2023-05-22T10:48:39;100116.28;;;22.88;73.09
55675;BME280;41562;44.330;23.802;2023-05-22T10:51:06;100111.88;;;22.67;70.74
55675;BME280;41562;44.330;23.802;2023-05-22T10:53:34;100111.88;;;22.67;73.11
55675;BME280;41562;44.330;23.802;2023-05-22T10:56:11;100107.38;;;23.10;72.59
55675;BME280;41562;44.330;23.802;2023-05-22T10:58:42;100097.22;;;23.07;69.63
55675;BME280;41562;44.330;23.802;2023-05-22T11:09:31;100086.84;;;23.35;66.55
55675;BME280;41562;44.330;23.802;2023-05-22T11:12:18;100077.47;;;23.13;67.13
55675;BME280;41562;44.330;23.802;2023-05-22T11:15:05;100086.22;;;23.03;67.56
55675;BME280;41562;44.330;23.802;2023-05-22T11:17:40;100091.44;;;22.93;67.91
55675;BME280;41562;44.330;23.802;2023-05-22T11:22:41;100081.81;;;22.64;69.37
55675;BME280;41562;44.330;23.802;2023-05-22T11:25:09;100071.28;;;22.62;70.28
55675;BME280;41562;44.330;23.802;2023-05-22T11:27:39;100068.63;;;22.66;71.41
55675;BME280;41562;44.330;23.802;2023-05-22T11:30:08;100059.50;;;22.93;70.68
55675;BME280;41562;44.330;23.802;2023-05-22T11:32:37;100064.41;;;22.68;69.66
55675;BME280;41562;44.330;23.802;2023-05-22T11:35:05;100058.34;;;22.75;67.67
55675;BME280;41562;44.330;23.802;2023-05-22T11:37:37;100048.09;;;22.88;67.33
55675;BME280;41562;44.330;23.802;2023-05-22T11:40:05;100047.59;;;22.82;65.70
55675;BME280;41562;44.330;23.802;2023-05-22T11:42:34;100046.88;;;22.85;66.14
55675;BME280;41562;44.330;23.802;2023-05-22T11:45:02;100048.16;;;23.10;66.70
55675;BME280;41562;44.330;23.802;2023-05-22T11:47:30;100040.13;;;23.17;66.23
55675;BME280;41562;44.330;23.802;2023-05-22T11:49:58;100038.19;;;23.18;66.74
55675;BME280;41562;44.330;23.802;2023-05-22T11:52:31;100046.94;;;23.27;67.17
55675;BME280;41562;44.330;23.802;2023-05-22T11:54:59;100037.53;;;23.24;66.07
55675;BME280;41562;44.330;23.802;2023-05-22T11:57:27;100035.88;;;23.39;66.32
55675;BME280;41562;44.330;23.802;2023-05-22T11:59:54;100032.09;;;23.24;65.71
55675;BME280;41562;44.330;23.802;2023-05-22T12:02:21;100037.09;;;23.22;65.05
55675;BME280;41562;44.330;23.802;2023-05-22T12:04:56;100039.75;;;23.38;65.77
55675;BME280;41562;44.330;23.802;2023-05-22T12:07:24;100033.50;;;23.38;63.56
55675;BME280;41562;44.330;23.802;2023-05-22T12:09:55;100021.94;;;23.44;63.83
55675;BME280;41562;44.330;23.802;2023-05-22T12:12:23;100019.13;;;23.41;62.28
55675;BME280;41562;44.330;23.802;2023-05-22T12:14:51;100012.28;;;23.70;65.06
55675;BME280;41562;44.330;23.802;2023-05-22T12:17:19;100002.38;;;23.42;64.79
55675;BME280;41562;44.330;23.802;2023-05-22T12:19:46;100002.16;;;23.09;64.46
55675;BME280;41562;44.330;23.802;2023-05-22T12:22:14;100009.53;;;23.27;65.18
55675;BME280;41562;44.330;23.802;2023-05-22T12:24:42;99995.66;;;23.36;61.28
55675;BME280;41562;44.330;23.802;2023-05-22T12:27:11;99998.75;;;23.15;61.71
55675;BME280;41562;44.330;23.802;2023-05-22T12:29:40;100003.31;;;22.89;64.08
55675;BME280;41562;44.330;23.802;2023-05-22T12:32:09;99998.78;;;22.77;65.63
55675;BME280;41562;44.330;23.802;2023-05-22T12:34:45;99992.13;;;22.74;67.93
55675;BME280;41562;44.330;23.802;2023-05-22T12:37:24;99994.06;;;22.58;65.92
55675;BME280;41562;44.330;23.802;2023-05-22T12:40:01;99988.88;;;22.69;67.55
55675;BME280;41562;44.330;23.802;2023-05-22T12:42:29;99981.22;;;22.94;66.33
55675;BME280;41562;44.330;23.802;2023-05-22T12:44:57;99982.84;;;23.17;65.56
55675;BME280;41562;44.330;23.802;2023-05-22T12:47:24;99972.97;;;23.32;65.23
55675;BME280;41562;44.330;23.802;2023-05-22T12:49:52;99968.06;;;23.41;65.19
55675;BME280;41562;44.330;23.802;2023-05-22T12:52:19;99965.59;;;23.55;65.38
55675;BME280;41562;44.330;23.802;2023-05-22T12:54:47;99971.25;;;23.66;64.21
55675;BME280;41562;44.330;23.802;2023-05-22T12:57:14;99970.22;;;23.51;63.49
55675;BME280;41562;44.330;23.802;2023-05-22T12:59:42;99973.38;;;23.53;64.62
55675;BME280;41562;44.330;23.802;2023-05-22T13:02:09;99970.88;;;23.68;63.67
55675;BME280;41562;44.330;23.802;2023-05-22T13:04:37;99974.63;;;23.59;61.77
55675;BME280;41562;44.330;23.802;2023-05-22T13:07:04;99976.03;;;23.73;62.52
55675;BME280;41562;44.330;23.802;2023-05-22T13:09:32;99964.03;;;23.54;65.83
55675;BME280;41562;44.330;23.802;2023-05-22T13:12:00;99965.28;;;23.60;65.13